sensor_id;sensor_type;location;lat;lon;timestamp;pressure;altitude;pressure_sealevel;temperature;humidity
31082;BME280;17737;52.586;13.284;2023-07-09T00:01:59;101603.56;;;19.45;53.48
31082;BME280;17737;52.586;13.284;2023-07-09T00:04:27;101605.59;;;19.30;54.21
31082;BME280;17737;52.586;13.284;2023-07-09T00:07:00;101606.28;;;19.39;55.10
31082;BME280;17737;52.586;13.284;2023-07-09T00:09:31;101605.66;;;19.43;54.26
31082;BME280;17737;52.586;13.284;2023-07-09T00:12:01;101597.22;;;19.38;54.62
31082;BME280;17737;52.586;13.284;2023-07-09T00:14:29;101606.75;;;19.55;53.74
31082;BME280;17737;52.586;13.284;2023-07-09T00:16:57;101603.81;;;19.63;53.42
31082;BME280;17737;52.586;13.284;2023-07-09T00:19:26;101607.16;;;19.52;54.32
31082;BME280;17737;52.586;13.284;2023-07-09T00:21:55;101601.88;;;19.44;54.82
31082;BME280;17737;52.586;13.284;2023-07-09T00:24:24;101600.41;;;19.55;53.72
31082;BME280;17737;52.586;13.284;2023-07-09T00:26:53;101594.72;;;19.50;53.84
31082;BME280;17737;52.586;13.284;2023-07-09T00:29:22;101591.59;;;19.53;53.96
31082;BME280;17737;52.586;13.284;2023-07-09T00:31:50;101595.16;;;19.53;53.92
31082;BME280;17737;52.586;13.284;2023-07-09T00:34:18;101596.41;;;19.44;54.29
31082;BME280;17737;52.586;13.284;2023-07-09T00:36:48;101591.97;;;19.43;54.41
31082;BME280;17737;52.586;13.284;2023-07-09T00:39:18;101594.34;;;19.53;54.05
31082;BME280;17737;52.586;13.284;2023-07-09T00:41:49;101594.09;;;19.48;54.59
31082;BME280;17737;52.586;13.284;2023-07-09T00:44:29;101595.97;;;19.41;54.61
31082;BME280;17737;52.586;13.284;2023-07-09T00:47:27;101591.34;;;19.41;54.52
31082;BME280;17737;52.586;13.284;2023-07-09T00:50:08;101593.34;;;19.26;54.97
31082;BME280;17737;52.586;13.284;2023-07-09T00:52:49;101584.72;;;19.23;55.08
31082;BME280;17737;52.586;13.284;2023-07-09T00:55:23;101587.72;;;19.34;55.08
31082;BME280;17737;52.586;13.284;2023-07-09T00:57:58;101577.81;;;19.27;55.24
31082;BME280;17737;52.586;13.284;2023-07-09T01:00:33;101581.47;;;19.40;55.10
31082;BME280;17737;52.586;13.284;2023-07-09T01:03:21;101577.53;;;19.56;54.63
31082;BME280;17737;52.586;13.284;2023-07-09T01:05:53;101577.88;;;19.33;55.27
31082;BME280;17737;52.586;13.284;2023-07-09T01:08:22;101579.25;;;19.23;55.95
31082;BME280;17737;52.586;13.284;2023-07-09T01:10:50;101588.00;;;19.39;55.58
31082;BME280;17737;52.586;13.284;2023-07-09T01:13:18;101579.16;;;19.37;55.92
31082;BME280;17737;52.586;13.284;2023-07-09T01:15:48;101580.81;;;19.38;55.80
31082;BME280;17737;52.586;13.284;2023-07-09T01:18:17;101584.63;;;19.37;55.61
31082;BME280;17737;52.586;13.284;2023-07-09T01:20:45;101588.53;;;19.28;56.03
31082;BME280;17737;52.586;13.284;2023-07-09T01:23:15;101576.03;;;19.06;56.92
31082;BME280;17737;52.586;13.284;2023-07-09T01:25:46;101579.41;;;19.08;56.81
31082;BME280;17737;52.586;13.284;2023-07-09T01:28:20;101585.38;;;19.25;56.26
31082;BME280;17737;52.586;13.284;2023-07-09T01:30:49;101582.69;;;19.31;56.06
31082;BME280;17737;52.586;13.284;2023-07-09T01:33:21;101584.28;;;19.19;56.19
31082;BME280;17737;52.586;13.284;2023-07-09T01:35:50;101585.88;;;19.00;57.21
31082;BME280;17737;52.586;13.284;2023-07-09T01:38:20;101586.09;;;18.99;57.50
31082;BME280;17737;52.586;13.284;2023-07-09T01:40:48;101584.34;;;18.85;58.45
31082;BME280;17737;52.586;13.284;2023-07-09T01:43:16;101590.00;;;18.83;58.18
31082;BME280;17737;52.586;13.284;2023-07-09T01:45:44;101585.63;;;18.89;58.13
31082;BME280;17737;52.586;13.284;2023-07-09T01:48:16;101580.34;;;18.81;58.41
31082;BME280;17737;52.586;13.284;2023-07-09T01:50:47;101581.34;;;18.73;58.91
31082;BME280;17737;52.586;13.284;2023-07-09T01:53:17;101574.22;;;18.79;58.76
31082;BME280;17737;52.586;13.284;2023-07-09T01:55:50;101570.31;;;18.88;58.56
31082;BME280;17737;52.586;13.284;2023-07-09T01:58:18;101574.72;;;18.95;58.53
31082;BME280;17737;52.586;13.284;2023-07-09T02:00:51;101571.03;;;19.09;58.06
31082;BME280;17737;52.586;13.284;2023-07-09T02:03:19;101577.59;;;19.28;57.53
31082;BME280;17737;52.586;13.284;2023-07-09T02:05:47;101576.09;;;19.19;58.09
31082;BME280;17737;52.586;13.284;2023-07-09T02:08:15;101578.19;;;19.17;58.30
31082;BME280;17737;52.586;13.284;2023-07-09T02:10:45;101577.28;;;19.03;59.14
31082;BME280;17737;52.586;13.284;2023-07-09T02:13:16;101584.97;;;18.87;60.16
31082;BME280;17737;52.586;13.284;2023-07-09T02:15:44;101585.53;;;18.69;61.31
31082;BME280;17737;52.586;13.284;2023-07-09T02:18:13;101584.72;;;18.75;61.18
31082;BME280;17737;52.586;13.284;2023-07-09T02:20:41;101589.44;;;18.60;61.88
31082;BME280;17737;52.586;13.284;2023-07-09T02:23:09;101586.03;;;18.52;62.24
31082;BME280;17737;52.586;13.284;2023-07-09T02:25:37;101589.78;;;18.51;62.55
31082;BME280;17737;52.586;13.284;2023-07-09T02:28:06;101598.03;;;18.57;62.53
31082;BME280;17737;52.586;13.284;2023-07-09T02:30:34;101597.13;;;18.44;63.33
31082;BME280;17737;52.586;13.284;2023-07-09T02:33:02;101597.56;;;18.26;64.56
31082;BME280;17737;52.586;13.284;2023-07-09T02:35:30;101604.25;;;18.45;63.79
31082;BME280;17737;52.586;13.284;2023-07-09T02:37:58;101601.50;;;18.24;64.25
31082;BME280;17737;52.586;13.284;2023-07-09T02:40:26;101604.19;;;18.17;64.19
31082;BME280;17737;52.586;13.284;2023-07-09T02:42:55;101602.06;;;17.91;65.21
31082;BME280;17737;52.586;13.284;2023-07-09T02:45:24;101596.22;;;17.94;65.53
31082;BME280;17737;52.586;13.284;2023-07-09T02:47:52;101605.84;;;17.90;65.90
31082;BME280;17737;52.586;13.284;2023-07-09T02:50:20;101611.81;;;17.79;66.52
31082;BME280;17737;52.586;13.284;2023-07-09T02:52:48;101605.38;;;17.66;67.54
31082;BME280;17737;52.586;13.284;2023-07-09T02:55:16;101612.63;;;17.59;68.06
31082;BME280;17737;52.586;13.284;2023-07-09T02:57:44;101614.00;;;17.48;68.38
31082;BME280;17737;52.586;13.284;2023-07-09T03:00:13;101616.72;;;17.48;68.31
31082;BME280;17737;52.586;13.284;2023-07-09T03:02:43;101603.72;;;17.50;68.14
31082;BME280;17737;52.586;13.284;2023-07-09T03:05:11;101609.19;;;17.36;68.89
31082;BME280;17737;52.586;13.284;2023-07-09T03:07:39;101606.00;;;17.32;68.96
31082;BME280;17737;52.586;13.284;2023-07-09T03:10:07;101606.59;;;17.28;69.25
31082;BME280;17737;52.586;13.284;2023-07-09T03:12:36;101608.84;;;17.24;69.60
31082;BME280;17737;52.586;13.284;2023-07-09T03:15:04;101612.88;;;17.28;69.22
31082;BME280;17737;52.586;13.284;2023-07-09T03:17:33;101608.00;;;17.24;69.30
31082;BME280;17737;52.586;13.284;2023-07-09T03:20:03;101614.69;;;17.21;69.42
31082;BME280;17737;52.586;13.284;2023-07-09T03:22:34;101613.38;;;17.17;69.88
31082;BME280;17737;52.586;13.284;2023-07-09T03:25:02;101615.81;;;17.12;70.43
31082;BME280;17737;52.586;13.284;2023-07-09T03:27:30;101613.09;;;17.12;70.41
31082;BME280;17737;52.586;13.284;2023-07-09T03:29:58;101618.50;;;17.27;69.97
31082;BME280;17737;52.586;13.284;2023-07-09T03:32:27;101618.22;;;17.22;70.18
31082;BME280;17737;52.586;13.284;2023-07-09T03:34:55;101614.00;;;17.48;69.53
31082;BME280;17737;52.586;13.284;2023-07-09T03:37:24;101617.59;;;17.70;68.28
31082;BME280;17737;52.586;13.284;2023-07-09T03:39:52;101617.72;;;18.04;66.88
31082;BME280;17737;52.586;13.284;2023-07-09T03:42:20;101617.88;;;18.24;65.89
31082;BME280;17737;52.586;13.284;2023-07-09T03:44:48;101619.97;;;18.43;64.83
31082;BME280;17737;52.586;13.284;2023-07-09T03:47:16;101620.72;;;18.58;64.13
31082;BME280;17737;52.586;13.284;2023-07-09T03:49:45;101621.53;;;18.86;63.12
31082;BME280;17737;52.586;13.284;2023-07-09T03:52:13;101623.13;;;19.08;61.94
31082;BME280;17737;52.586;13.284;2023-07-09T03:54:42;101625.69;;;19.16;61.60
31082;BME280;17737;52.586;13.284;2023-07-09T03:57:10;101623.00;;;19.29;61.28
31082;BME280;17737;52.586;13.284;2023-07-09T03:59:38;101630.91;;;19.52;60.22
31082;BME280;17737;52.586;13.284;2023-07-09T04:02:06;101627.59;;;19.63;59.18
31082;BME280;17737;52.586;13.284;2023-07-09T04:04:34;101632.03;;;19.77;58.87
31082;BME280;17737;52.586;13.284;2023-07-09T04:07:03;101629.78;;;19.93;58.49
31082;BME280;17737;52.586;13.284;2023-07-09T04:09:31;101633.78;;;20.10;57.88
31082;BME280;17737;52.586;13.284;2023-07-09T04:12:01;101634.03;;;20.29;57.15
31082;BME280;17737;52.586;13.284;2023-07-09T04:14:29;101630.03;;;20.51;56.37
31082;BME280;17737;52.586;13.284;2023-07-09T04:16:57;101639.09;;;20.58;55.71
31082;BME280;17737;52.586;13.284;2023-07-09T04:19:25;101640.13;;;20.70;55.55
31082;BME280;17737;52.586;13.284;2023-07-09T04:21:53;101638.84;;;20.85;55.05
31082;BME280;17737;52.586;13.284;2023-07-09T04:24:22;101634.22;;;20.73;55.12
31082;BME280;17737;52.586;13.284;2023-07-09T04:26:50;101632.91;;;21.01;54.85
31082;BME280;17737;52.586;13.284;2023-07-09T04:29:24;101641.47;;;21.31;53.61
31082;BME280;17737;52.586;13.284;2023-07-09T04:31:52;101636.63;;;21.33;53.54
31082;BME280;17737;52.586;13.284;2023-07-09T04:34:20;101631.97;;;21.78;52.72
31082;BME280;17737;52.586;13.284;2023-07-09T04:36:49;101640.53;;;21.94;51.88
31082;BME280;17737;52.586;13.284;2023-07-09T04:39:17;101628.50;;;21.95;51.29
31082;BME280;17737;52.586;13.284;2023-07-09T04:41:45;101641.63;;;21.87;51.47
31082;BME280;17737;52.586;13.284;2023-07-09T04:44:13;101635.63;;;22.27;50.70
31082;BME280;17737;52.586;13.284;2023-07-09T04:46:42;101635.84;;;22.01;50.92
31082;BME280;17737;52.586;13.284;2023-07-09T04:49:10;101641.13;;;22.27;50.35
31082;BME280;17737;52.586;13.284;2023-07-09T04:51:38;101640.16;;;22.15;50.22
31082;BME280;17737;52.586;13.284;2023-07-09T04:54:06;101641.91;;;22.10;50.62
31082;BME280;17737;52.586;13.284;2023-07-09T04:56:35;101639.28;;;22.21;50.67
31082;BME280;17737;52.586;13.284;2023-07-09T04:59:04;101641.41;;;22.19;50.87
31082;BME280;17737;52.586;13.284;2023-07-09T05:01:32;101637.84;;;22.43;49.75
31082;BME280;17737;52.586;13.284;2023-07-09T05:04:01;101638.41;;;22.77;49.13
31082;BME280;17737;52.586;13.284;2023-07-09T05:06:29;101650.50;;;23.12;48.22
31082;BME280;17737;52.586;13.284;2023-07-09T05:08:57;101643.31;;;22.93;48.88
31082;BME280;17737;52.586;13.284;2023-07-09T05:11:25;101642.44;;;23.35;48.20
31082;BME280;17737;52.586;13.284;2023-07-09T05:13:54;101639.69;;;23.35;47.66
31082;BME280;17737;52.586;13.284;2023-07-09T05:16:22;101641.69;;;23.76;46.73
31082;BME280;17737;52.586;13.284;2023-07-09T05:18:50;101639.44;;;24.02;45.46
31082;BME280;17737;52.586;13.284;2023-07-09T05:21:19;101638.75;;;24.18;46.06
31082;BME280;17737;52.586;13.284;2023-07-09T05:23:47;101637.84;;;24.59;44.71
31082;BME280;17737;52.586;13.284;2023-07-09T05:26:15;101641.59;;;24.99;43.91
31082;BME280;17737;52.586;13.284;2023-07-09T05:28:43;101653.56;;;24.93;43.63
31082;BME280;17737;52.586;13.284;2023-07-09T05:31:11;101642.78;;;25.15;43.46
31082;BME280;17737;52.586;13.284;2023-07-09T05:33:39;101648.91;;;24.94;43.33
31082;BME280;17737;52.586;13.284;2023-07-09T05:36:08;101634.88;;;25.58;41.88
31082;BME280;17737;52.586;13.284;2023-07-09T05:38:43;101647.50;;;25.54;41.97
31082;BME280;17737;52.586;13.284;2023-07-09T05:41:12;101649.06;;;25.50;42.11
31082;BME280;17737;52.586;13.284;2023-07-09T05:43:43;101646.81;;;25.75;41.23
31082;BME280;17737;52.586;13.284;2023-07-09T05:46:13;101635.94;;;25.68;40.94
31082;BME280;17737;52.586;13.284;2023-07-09T05:48:41;101641.00;;;26.16;39.76
31082;BME280;17737;52.586;13.284;2023-07-09T05:51:09;101648.44;;;25.87;40.91
31082;BME280;17737;52.586;13.284;2023-07-09T05:53:37;101651.38;;;25.81;40.97
31082;BME280;17737;52.586;13.284;2023-07-09T05:56:09;101645.22;;;25.62;40.80
31082;BME280;17737;52.586;13.284;2023-07-09T05:58:37;101644.47;;;25.04;41.89
31082;BME280;17737;52.586;13.284;2023-07-09T06:01:05;101644.44;;;24.46;43.52
31082;BME280;17737;52.586;13.284;2023-07-09T06:03:33;101645.78;;;23.37;45.88
31082;BME280;17737;52.586;13.284;2023-07-09T06:06:01;101641.66;;;23.28;46.50
31082;BME280;17737;52.586;13.284;2023-07-09T06:08:30;101642.09;;;23.25;46.21
31082;BME280;17737;52.586;13.284;2023-07-09T06:11:00;101647.09;;;23.34;46.59
31082;BME280;17737;52.586;13.284;2023-07-09T06:13:30;101644.09;;;23.18;46.83
31082;BME280;17737;52.586;13.284;2023-07-09T06:16:00;101643.00;;;22.83;50.05
31082;BME280;17737;52.586;13.284;2023-07-09T06:18:30;101638.63;;;23.36;47.58
31082;BME280;17737;52.586;13.284;2023-07-09T06:21:00;101648.22;;;23.45;47.36
31082;BME280;17737;52.586;13.284;2023-07-09T06:23:30;101660.28;;;23.26;47.20
31082;BME280;17737;52.586;13.284;2023-07-09T06:25:59;101650.84;;;23.40;47.71
31082;BME280;17737;52.586;13.284;2023-07-09T06:28:28;101645.53;;;23.56;47.18
31082;BME280;17737;52.586;13.284;2023-07-09T06:30:57;101658.44;;;23.74;47.14
31082;BME280;17737;52.586;13.284;2023-07-09T06:33:26;101654.63;;;23.75;47.03
31082;BME280;17737;52.586;13.284;2023-07-09T06:35:57;101648.66;;;23.60;47.32
31082;BME280;17737;52.586;13.284;2023-07-09T06:38:26;101659.75;;;23.72;47.09
31082;BME280;17737;52.586;13.284;2023-07-09T06:40:56;101652.19;;;23.97;46.64
31082;BME280;17737;52.586;13.284;2023-07-09T06:43:24;101657.50;;;23.80;47.26
31082;BME280;17737;52.586;13.284;2023-07-09T06:45:54;101659.75;;;24.01;46.90
31082;BME280;17737;52.586;13.284;2023-07-09T06:48:26;101663.72;;;24.05;46.83
31082;BME280;17737;52.586;13.284;2023-07-09T06:50:56;101662.66;;;24.18;46.63
31082;BME280;17737;52.586;13.284;2023-07-09T06:53:27;101661.66;;;24.42;45.69
31082;BME280;17737;52.586;13.284;2023-07-09T06:55:56;101658.44;;;24.45;46.31
31082;BME280;17737;52.586;13.284;2023-07-09T06:58:26;101663.06;;;24.86;44.90
31082;BME280;17737;52.586;13.284;2023-07-09T07:00:57;101663.03;;;24.74;43.98
31082;BME280;17737;52.586;13.284;2023-07-09T07:03:32;101658.50;;;24.79;44.53
31082;BME280;17737;52.586;13.284;2023-07-09T07:06:01;101668.78;;;25.19;43.63
31082;BME280;17737;52.586;13.284;2023-07-09T07:08:30;101669.28;;;24.93;44.71
31082;BME280;17737;52.586;13.284;2023-07-09T07:10:59;101670.22;;;25.10;43.76
31082;BME280;17737;52.586;13.284;2023-07-09T07:13:30;101672.41;;;25.08;44.73
31082;BME280;17737;52.586;13.284;2023-07-09T07:15:58;101664.22;;;25.36;42.85
31082;BME280;17737;52.586;13.284;2023-07-09T07:18:26;101669.97;;;25.23;45.38
31082;BME280;17737;52.586;13.284;2023-07-09T07:20:56;101655.69;;;25.37;45.81
31082;BME280;17737;52.586;13.284;2023-07-09T07:23:24;101656.69;;;25.71;42.57
31082;BME280;17737;52.586;13.284;2023-07-09T07:25:52;101659.47;;;25.59;42.67
31082;BME280;17737;52.586;13.284;2023-07-09T07:28:21;101661.97;;;25.72;42.34
31082;BME280;17737;52.586;13.284;2023-07-09T07:30:58;101659.88;;;25.51;42.96
31082;BME280;17737;52.586;13.284;2023-07-09T07:33:27;101663.56;;;25.85;41.94
31082;BME280;17737;52.586;13.284;2023-07-09T07:35:56;101661.22;;;26.05;41.60
31082;BME280;17737;52.586;13.284;2023-07-09T07:38:27;101662.34;;;25.92;42.25
31082;BME280;17737;52.586;13.284;2023-07-09T07:40:55;101664.59;;;26.07;41.38
31082;BME280;17737;52.586;13.284;2023-07-09T07:43:23;101664.69;;;26.12;41.15
31082;BME280;17737;52.586;13.284;2023-07-09T07:45:51;101664.38;;;25.97;43.47
31082;BME280;17737;52.586;13.284;2023-07-09T07:48:19;101667.63;;;25.94;42.82
31082;BME280;17737;52.586;13.284;2023-07-09T07:50:47;101658.19;;;26.18;42.97
31082;BME280;17737;52.586;13.284;2023-07-09T07:53:17;101663.53;;;26.58;40.55
31082;BME280;17737;52.586;13.284;2023-07-09T07:55:45;101661.88;;;26.57;40.58
31082;BME280;17737;52.586;13.284;2023-07-09T07:58:13;101671.00;;;26.57;40.73
31082;BME280;17737;52.586;13.284;2023-07-09T08:00:41;101658.69;;;26.15;41.80
31082;BME280;17737;52.586;13.284;2023-07-09T08:03:09;101658.00;;;26.25;41.35
31082;BME280;17737;52.586;13.284;2023-07-09T08:05:37;101664.75;;;26.17;41.79
31082;BME280;17737;52.586;13.284;2023-07-09T08:08:05;101645.22;;;26.35;41.18
31082;BME280;17737;52.586;13.284;2023-07-09T08:10:35;101652.19;;;26.54;40.91
31082;BME280;17737;52.586;13.284;2023-07-09T08:13:03;101646.94;;;26.58;40.56
31082;BME280;17737;52.586;13.284;2023-07-09T08:15:31;101651.16;;;26.60;40.98
31082;BME280;17737;52.586;13.284;2023-07-09T08:17:59;101657.69;;;26.54;40.46
31082;BME280;17737;52.586;13.284;2023-07-09T08:20:27;101656.59;;;26.39;41.13
31082;BME280;17737;52.586;13.284;2023-07-09T08:22:55;101657.88;;;26.64;41.16
31082;BME280;17737;52.586;13.284;2023-07-09T08:25:23;101650.28;;;26.71;40.94
31082;BME280;17737;52.586;13.284;2023-07-09T08:27:52;101663.63;;;26.96;39.97
31082;BME280;17737;52.586;13.284;2023-07-09T08:30:20;101657.31;;;27.00;39.92
31082;BME280;17737;52.586;13.284;2023-07-09T08:32:48;101656.75;;;26.98;41.24
31082;BME280;17737;52.586;13.284;2023-07-09T08:35:17;101653.44;;;27.18;38.54
31082;BME280;17737;52.586;13.284;2023-07-09T08:37:47;101652.09;;;27.21;39.01
31082;BME280;17737;52.586;13.284;2023-07-09T08:40:16;101655.56;;;27.49;38.34
31082;BME280;17737;52.586;13.284;2023-07-09T08:42:47;101655.44;;;27.39;39.23
31082;BME280;17737;52.586;13.284;2023-07-09T08:45:39;101655.41;;;27.61;38.03
31082;BME280;17737;52.586;13.284;2023-07-09T08:48:19;101656.31;;;27.45;37.98
31082;BME280;17737;52.586;13.284;2023-07-09T08:50:59;101649.47;;;27.74;38.15
31082;BME280;17737;52.586;13.284;2023-07-09T08:53:36;101651.78;;;27.82;37.86
31082;BME280;17737;52.586;13.284;2023-07-09T08:56:08;101653.31;;;27.94;37.29
31082;BME280;17737;52.586;13.284;2023-07-09T08:58:38;101642.59;;;27.76;37.41
31082;BME280;17737;52.586;13.284;2023-07-09T09:01:18;101638.44;;;27.79;36.14
31082;BME280;17737;52.586;13.284;2023-07-09T09:03:49;101637.44;;;28.11;35.23
31082;BME280;17737;52.586;13.284;2023-07-09T09:06:20;101646.84;;;28.10;35.73
31082;BME280;17737;52.586;13.284;2023-07-09T09:09:03;101640.34;;;28.26;34.86
31082;BME280;17737;52.586;13.284;2023-07-09T09:11:43;101646.53;;;28.07;35.76
31082;BME280;17737;52.586;13.284;2023-07-09T09:14:19;101637.59;;;28.32;35.29
31082;BME280;17737;52.586;13.284;2023-07-09T09:16:57;101643.72;;;28.34;33.51
31082;BME280;17737;52.586;13.284;2023-07-09T09:19:29;101641.97;;;27.96;33.69
31082;BME280;17737;52.586;13.284;2023-07-09T09:22:07;101641.97;;;28.22;35.05
31082;BME280;17737;52.586;13.284;2023-07-09T09:24:47;101631.28;;;28.36;33.83
31082;BME280;17737;52.586;13.284;2023-07-09T09:27:24;101629.47;;;28.20;34.29
31082;BME280;17737;52.586;13.284;2023-07-09T09:29:52;101640.19;;;28.70;33.23
31082;BME280;17737;52.586;13.284;2023-07-09T09:32:26;101643.25;;;28.73;30.89
31082;BME280;17737;52.586;13.284;2023-07-09T09:34:55;101641.53;;;28.67;30.56
31082;BME280;17737;52.586;13.284;2023-07-09T09:37:29;101642.28;;;28.89;30.72
31082;BME280;17737;52.586;13.284;2023-07-09T09:39:59;101645.03;;;28.89;30.75
31082;BME280;17737;52.586;13.284;2023-07-09T09:42:43;101643.97;;;28.95;30.86
31082;BME280;17737;52.586;13.284;2023-07-09T09:45:16;101641.19;;;28.95;29.69
31082;BME280;17737;52.586;13.284;2023-07-09T09:47:48;101637.69;;;28.68;31.18
31082;BME280;17737;52.586;13.284;2023-07-09T09:50:17;101642.41;;;29.09;30.64
31082;BME280;17737;52.586;13.284;2023-07-09T09:52:47;101645.78;;;29.16;31.98
31082;BME280;17737;52.586;13.284;2023-07-09T09:55:18;101642.00;;;28.91;33.33
31082;BME280;17737;52.586;13.284;2023-07-09T09:57:48;101641.03;;;28.70;35.53
31082;BME280;17737;52.586;13.284;2023-07-09T10:00:18;101633.88;;;29.21;33.28
31082;BME280;17737;52.586;13.284;2023-07-09T10:02:56;101644.03;;;29.05;33.20
31082;BME280;17737;52.586;13.284;2023-07-09T10:05:30;101635.50;;;29.17;32.79
31082;BME280;17737;52.586;13.284;2023-07-09T10:08:06;101637.03;;;29.45;33.27
31082;BME280;17737;52.586;13.284;2023-07-09T10:10:38;101632.88;;;29.47;32.82
31082;BME280;17737;52.586;13.284;2023-07-09T10:13:17;101637.22;;;29.90;32.36
31082;BME280;17737;52.586;13.284;2023-07-09T10:16:01;101644.41;;;29.81;30.87
31082;BME280;17737;52.586;13.284;2023-07-09T10:18:46;101635.25;;;29.85;31.49
31082;BME280;17737;52.586;13.284;2023-07-09T10:21:25;101630.50;;;29.71;31.84
31082;BME280;17737;52.586;13.284;2023-07-09T10:24:12;101638.00;;;29.80;31.87
31082;BME280;17737;52.586;13.284;2023-07-09T10:26:58;101632.50;;;30.15;31.24
31082;BME280;17737;52.586;13.284;2023-07-09T10:29:42;101630.81;;;29.89;31.27
31082;BME280;17737;52.586;13.284;2023-07-09T10:32:39;101629.13;;;29.88;30.97
31082;BME280;17737;52.586;13.284;2023-07-09T10:35:26;101631.63;;;29.85;31.13
31082;BME280;17737;52.586;13.284;2023-07-09T10:41:11;101632.28;;;30.27;30.53
31082;BME280;17737;52.586;13.284;2023-07-09T10:43:58;101630.53;;;29.86;31.36
31082;BME280;17737;52.586;13.284;2023-07-09T10:46:31;101624.44;;;29.99;31.01
31082;BME280;17737;52.586;13.284;2023-07-09T10:49:03;101624.97;;;29.91;31.83
31082;BME280;17737;52.586;13.284;2023-07-09T10:51:40;101619.97;;;29.78;31.56
31082;BME280;17737;52.586;13.284;2023-07-09T10:54:22;101614.41;;;29.78;31.46
31082;BME280;17737;52.586;13.284;2023-07-09T10:57:00;101619.16;;;29.97;31.05
31082;BME280;17737;52.586;13.284;2023-07-09T10:59:37;101610.50;;;29.84;31.25
31082;BME280;17737;52.586;13.284;2023-07-09T11:02:18;101613.56;;;29.87;31.09
31082;BME280;17737;52.586;13.284;2023-07-09T11:04:53;101613.88;;;30.21;30.81
31082;BME280;17737;52.586;13.284;2023-07-09T11:07:27;101618.88;;;30.09;31.26
31082;BME280;17737;52.586;13.284;2023-07-09T11:10:01;101616.09;;;30.09;31.07
31082;BME280;17737;52.586;13.284;2023-07-09T11:12:36;101617.78;;;30.15;30.15
31082;BME280;17737;52.586;13.284;2023-07-09T11:15:12;101615.56;;;30.12;30.33
31082;BME280;17737;52.586;13.284;2023-07-09T11:17:46;101617.50;;;30.16;30.45
31082;BME280;17737;52.586;13.284;2023-07-09T11:20:20;101612.50;;;30.13;31.26
31082;BME280;17737;52.586;13.284;2023-07-09T11:23:01;101607.81;;;30.24;30.47
31082;BME280;17737;52.586;13.284;2023-07-09T11:25:41;101608.03;;;30.12;30.45
31082;BME280;17737;52.586;13.284;2023-07-09T11:28:11;101599.19;;;30.20;30.96
31082;BME280;17737;52.586;13.284;2023-07-09T11:30:48;101592.75;;;29.95;30.54
31082;BME280;17737;52.586;13.284;2023-07-09T11:33:19;101597.25;;;30.31;30.64
31082;BME280;17737;52.586;13.284;2023-07-09T11:36:06;101591.94;;;30.54;30.28
31082;BME280;17737;52.586;13.284;2023-07-09T11:38:41;101593.88;;;30.59;29.85
31082;BME280;17737;52.586;13.284;2023-07-09T11:41:26;101590.00;;;30.55;29.82
31082;BME280;17737;52.586;13.284;2023-07-09T11:44:12;101579.47;;;30.37;29.62
31082;BME280;17737;52.586;13.284;2023-07-09T11:46:51;101584.47;;;30.30;29.64
31082;BME280;17737;52.586;13.284;2023-07-09T11:49:45;101578.88;;;30.50;30.36
31082;BME280;17737;52.586;13.284;2023-07-09T11:52:22;101577.47;;;30.83;29.88
31082;BME280;17737;52.586;13.284;2023-07-09T11:54:57;101574.91;;;30.96;29.26
31082;BME280;17737;52.586;13.284;2023-07-09T11:57:24;101574.97;;;30.61;29.49
31082;BME280;17737;52.586;13.284;2023-07-09T11:59:59;101580.25;;;30.68;29.09
31082;BME280;17737;52.586;13.284;2023-07-09T12:02:32;101578.84;;;30.60;29.14
31082;BME280;17737;52.586;13.284;2023-07-09T12:05:02;101571.88;;;30.73;29.21
31082;BME280;17737;52.586;13.284;2023-07-09T12:07:32;101572.41;;;30.95;28.19
31082;BME280;17737;52.586;13.284;2023-07-09T12:10:03;101563.81;;;30.81;29.04
31082;BME280;17737;52.586;13.284;2023-07-09T12:12:53;101561.03;;;30.86;28.70
31082;BME280;17737;52.586;13.284;2023-07-09T12:15:24;101559.88;;;30.92;28.60
31082;BME280;17737;52.586;13.284;2023-07-09T12:17:55;101553.22;;;30.93;29.20
31082;BME280;17737;52.586;13.284;2023-07-09T12:20:26;101553.06;;;31.33;28.27
31082;BME280;17737;52.586;13.284;2023-07-09T12:22:58;101545.31;;;31.20;28.33
31082;BME280;17737;52.586;13.284;2023-07-09T12:25:31;101546.53;;;30.89;29.04
31082;BME280;17737;52.586;13.284;2023-07-09T12:27:59;101541.53;;;30.91;28.22
31082;BME280;17737;52.586;13.284;2023-07-09T12:30:28;101548.22;;;30.90;28.04
31082;BME280;17737;52.586;13.284;2023-07-09T12:32:59;101542.63;;;30.95;27.76
31082;BME280;17737;52.586;13.284;2023-07-09T12:35:28;101542.91;;;30.94;28.17
31082;BME280;17737;52.586;13.284;2023-07-09T12:37:56;101546.53;;;30.94;27.87
31082;BME280;17737;52.586;13.284;2023-07-09T12:40:29;101541.00;;;30.84;27.62
31082;BME280;17737;52.586;13.284;2023-07-09T12:42:58;101539.91;;;30.85;28.43
31082;BME280;17737;52.586;13.284;2023-07-09T12:45:28;101529.81;;;30.94;27.80
31082;BME280;17737;52.586;13.284;2023-07-09T12:47:57;101544.25;;;31.06;27.88
31082;BME280;17737;52.586;13.284;2023-07-09T12:50:31;101537.78;;;31.21;27.50
31082;BME280;17737;52.586;13.284;2023-07-09T12:53:12;101523.72;;;30.77;27.93
31082;BME280;17737;52.586;13.284;2023-07-09T12:55:45;101523.03;;;31.20;27.38
31082;BME280;17737;52.586;13.284;2023-07-09T12:58:18;101519.59;;;31.38;26.61
31082;BME280;17737;52.586;13.284;2023-07-09T13:00:48;101513.16;;;31.48;26.91
31082;BME280;17737;52.586;13.284;2023-07-09T13:03:19;101512.16;;;31.24;26.83
31082;BME280;17737;52.586;13.284;2023-07-09T13:05:53;101518.19;;;31.46;26.45